createdAt,value
2022-11-05T00:02:00.196Z,101498.41
2022-11-05T00:04:46.409Z,101502.16
2022-11-05T00:07:39.238Z,101505.53
2022-11-05T00:10:24.984Z,101504.47
2022-11-05T00:13:16.677Z,101507.06
2022-11-05T00:16:02.599Z,101511.38
2022-11-05T00:18:30.019Z,101507.19
2022-11-05T00:20:57.241Z,101511.47
2022-11-05T00:23:42.803Z,101506.84
2022-11-05T00:26:11.754Z,101518.22
2022-11-05T00:28:44.140Z,101511.41
2022-11-05T00:31:13.806Z,101510.63
2022-11-05T00:33:42.855Z,101505.47
2022-11-05T00:36:11.303Z,101501.13
2022-11-05T00:38:38.404Z,101508.06
2022-11-05T00:41:05.784Z,101506.41
2022-11-05T00:43:51.168Z,101501.09
2022-11-05T00:46:18.576Z,101502.06
2022-11-05T00:49:03.985Z,101507.66
2022-11-05T00:51:31.107Z,101506.22
2022-11-05T00:53:58.248Z,101510.09
2022-11-05T00:56:25.331Z,101501.00
2022-11-05T00:58:52.340Z,101514.91
2022-11-05T01:01:23.149Z,101512.41
2022-11-05T01:03:51.877Z,101524.53
2022-11-05T01:06:20.001Z,101517.53
2022-11-05T01:08:50.532Z,101518.56
2022-11-05T01:11:43.169Z,101518.41
2022-11-05T01:14:13.281Z,101515.91
2022-11-05T01:16:48.857Z,101523.44
2022-11-05T01:19:18.150Z,101525.50
2022-11-05T01:21:46.209Z,101526.28
2022-11-05T01:24:13.486Z,101534.09
2022-11-05T01:26:45.961Z,101537.56
2022-11-05T01:29:16.731Z,101534.16
2022-11-05T01:31:44.272Z,101534.75
2022-11-05T01:34:14.618Z,101535.50
2022-11-05T01:36:45.546Z,101534.59
2022-11-05T01:39:15.757Z,101535.47
2022-11-05T01:41:43.071Z,101534.47
2022-11-05T01:44:50.578Z,101532.63
2022-11-05T01:47:46.955Z,101525.63
2022-11-05T01:50:26.579Z,101522.84
2022-11-05T01:52:58.907Z,101533.72
2022-11-05T01:55:35.378Z,101527.38
2022-11-05T01:58:03.865Z,101534.41
2022-11-05T02:00:31.745Z,101520.22
2022-11-05T02:02:59.007Z,101525.84
2022-11-05T02:05:26.551Z,101523.19
2022-11-05T02:07:55.423Z,101521.19
2022-11-05T02:10:26.174Z,101522.94
2022-11-05T02:12:53.411Z,101524.53
2022-11-05T02:16:01.977Z,101532.28
2022-11-05T02:18:39.905Z,101527.84
2022-11-05T02:21:36.274Z,101538.22
2022-11-05T02:24:32.371Z,101534.59
2022-11-05T02:27:07.714Z,101548.19
2022-11-05T02:30:09.417Z,101527.91
2022-11-05T02:32:45.235Z,101528.47
2022-11-05T02:35:17.134Z,101537.69
2022-11-05T02:37:52.306Z,101536.16
2022-11-05T02:40:36.690Z,101517.59
2022-11-05T02:43:16.857Z,101527.06
2022-11-05T02:46:09.137Z,101528.69
2022-11-05T02:48:57.837Z,101524.22
2022-11-05T02:51:36.645Z,101527.00
2022-11-05T02:54:19.399Z,101529.53
2022-11-05T02:56:54.124Z,101524.59
2022-11-05T03:02:39.138Z,101538.09
2022-11-05T03:05:06.673Z,101528.31
2022-11-05T03:07:59.804Z,101549.53
2022-11-05T03:10:57.670Z,101536.09
2022-11-05T03:13:40.056Z,101548.72
2022-11-05T03:16:18.183Z,101545.34
2022-11-05T03:19:16.513Z,101550.59
2022-11-05T03:21:53.524Z,101544.41
2022-11-05T03:24:25.478Z,101549.34
2022-11-05T03:26:55.372Z,101542.88
2022-11-05T03:29:30.570Z,101540.91
2022-11-05T03:32:02.061Z,101549.72
2022-11-05T03:34:42.114Z,101551.19
2022-11-05T03:37:11.318Z,101557.00
2022-11-05T03:39:42.622Z,101562.38
2022-11-05T03:42:15.020Z,101552.28
2022-11-05T03:44:57.984Z,101555.44
2022-11-05T03:47:32.995Z,101555.22
2022-11-05T03:50:28.750Z,101562.03
2022-11-05T03:53:05.251Z,101561.09
2022-11-05T03:55:57.109Z,101556.88
2022-11-05T03:58:25.132Z,101555.03
2022-11-05T04:00:55.632Z,101559.13
2022-11-05T04:03:25.687Z,101571.19
2022-11-05T04:06:15.058Z,101568.66
2022-11-05T04:09:00.837Z,101562.88
2022-11-05T04:11:46.803Z,101559.19
2022-11-05T04:14:13.944Z,101555.97
2022-11-05T04:16:59.527Z,101562.88
2022-11-05T04:19:45.052Z,101556.69
2022-11-05T04:22:30.674Z,101580.28
2022-11-05T04:24:57.752Z,101581.13
2022-11-05T04:27:24.927Z,101596.31
2022-11-05T04:30:10.771Z,101594.81
2022-11-05T04:32:37.986Z,101594.06
2022-11-05T04:35:05.312Z,101591.28
2022-11-05T04:37:32.577Z,101608.97
2022-11-05T04:39:59.790Z,101600.72
2022-11-05T04:42:28.362Z,101599.03
2022-11-05T04:44:58.379Z,101613.53
2022-11-05T04:47:28.512Z,101607.53
2022-11-05T04:49:55.691Z,101609.41
2022-11-05T04:52:22.883Z,101619.31
2022-11-05T04:54:50.063Z,101617.06
2022-11-05T04:57:17.222Z,101624.88
2022-11-05T05:00:16.104Z,101622.25
2022-11-05T05:02:43.396Z,101615.31
2022-11-05T05:05:17.176Z,101625.00
2022-11-05T05:07:44.392Z,101624.53
2022-11-05T05:10:12.535Z,101629.81
2022-11-05T05:12:42.344Z,101635.47
2022-11-05T05:15:10.470Z,101641.44
2022-11-05T05:17:41.500Z,101632.03
2022-11-05T05:20:27.557Z,101629.13
2022-11-05T05:22:55.420Z,101641.22
2022-11-05T05:25:23.090Z,101639.97
2022-11-05T05:27:50.516Z,101653.81
2022-11-05T05:30:18.309Z,101653.66
2022-11-05T05:32:48.231Z,101648.91
2022-11-05T05:35:16.209Z,101659.09
2022-11-05T05:37:44.467Z,101663.63
2022-11-05T05:40:12.140Z,101651.72
2022-11-05T05:42:43.155Z,101654.41
2022-11-05T05:45:13.108Z,101658.50
2022-11-05T05:47:40.342Z,101664.47
2022-11-05T05:50:07.746Z,101665.25
2022-11-05T05:52:34.868Z,101663.72
2022-11-05T05:55:03.172Z,101665.22
2022-11-05T05:57:30.374Z,101674.09
2022-11-05T05:59:57.577Z,101674.81
2022-11-05T06:02:25.300Z,101669.06
2022-11-05T06:04:52.440Z,101666.59
2022-11-05T06:07:19.587Z,101673.88
2022-11-05T06:09:47.050Z,101662.16
2022-11-05T06:12:16.343Z,101668.88
2022-11-05T06:14:43.466Z,101663.41
2022-11-05T06:17:10.624Z,101669.38
2022-11-05T06:19:37.807Z,101673.16
2022-11-05T06:22:06.285Z,101673.44
2022-11-05T06:24:39.484Z,101659.47
2022-11-05T06:27:08.070Z,101658.66
2022-11-05T06:29:35.426Z,101656.13
2022-11-05T06:32:05.842Z,101653.38
2022-11-05T06:34:37.052Z,101654.94
2022-11-05T06:37:06.887Z,101657.59
2022-11-05T06:39:37.545Z,101661.97
2022-11-05T06:42:17.891Z,101667.06
2022-11-05T06:44:53.498Z,101666.91
2022-11-05T06:47:23.781Z,101674.91
2022-11-05T06:49:50.927Z,101678.72
2022-11-05T06:52:18.145Z,101682.63
2022-11-05T06:54:46.371Z,101686.81
2022-11-05T06:57:13.805Z,101697.91
2022-11-05T06:59:41.551Z,101709.91
2022-11-05T07:02:12.646Z,101700.31
2022-11-05T07:04:40.974Z,101720.19
2022-11-05T07:07:08.009Z,101715.66
2022-11-05T07:09:38.765Z,101714.47
2022-11-05T07:12:08.292Z,101708.28
2022-11-05T07:14:35.709Z,101701.06
2022-11-05T07:17:03.109Z,101707.03
2022-11-05T07:19:33.656Z,101702.81
2022-11-05T07:22:01.137Z,101713.28
2022-11-05T07:24:28.325Z,101713.25
2022-11-05T07:26:55.351Z,101716.75
2022-11-05T07:29:22.760Z,101733.63
2022-11-05T07:31:53.168Z,101747.25
2022-11-05T07:34:20.437Z,101756.88
2022-11-05T07:36:50.702Z,101757.25
2022-11-05T07:39:17.966Z,101762.44
2022-11-05T07:41:53.475Z,101761.63
2022-11-05T07:44:21.926Z,101759.44
2022-11-05T07:46:51.914Z,101757.53
2022-11-05T07:49:27.064Z,101755.59
2022-11-05T07:51:54.524Z,101752.72
2022-11-05T07:54:26.876Z,101754.97
2022-11-05T07:56:54.773Z,101757.78
2022-11-05T07:59:24.159Z,101766.69
2022-11-05T08:01:54.988Z,101770.00
2022-11-05T08:04:25.606Z,101775.94
2022-11-05T08:06:57.803Z,101804.72
2022-11-05T08:09:24.925Z,101809.09
2022-11-05T08:11:59.823Z,101803.69
2022-11-05T08:14:29.877Z,101810.59
2022-11-05T08:16:58.514Z,101810.88
2022-11-05T08:19:25.615Z,101810.44
2022-11-05T08:21:52.922Z,101810.13
2022-11-05T08:24:20.160Z,101804.56
2022-11-05T08:26:47.269Z,101815.69
2022-11-05T08:29:14.462Z,101817.28
2022-11-05T08:31:41.673Z,101823.03
2022-11-05T08:34:11.591Z,101826.69
2022-11-05T08:36:42.290Z,101829.56
2022-11-05T08:39:14.270Z,101823.84
2022-11-05T08:41:47.018Z,101820.59
2022-11-05T08:44:14.103Z,101812.63
2022-11-05T08:46:41.808Z,101815.41
2022-11-05T08:49:09.205Z,101807.75
2022-11-05T08:51:36.769Z,101819.28
2022-11-05T08:54:04.062Z,101807.16
2022-11-05T08:56:36.741Z,101809.94
2022-11-05T08:59:06.518Z,101825.66
2022-11-05T09:01:34.742Z,101823.16
2022-11-05T09:04:02.324Z,101821.78
2022-11-05T09:06:32.547Z,101826.28
2022-11-05T09:09:02.777Z,101822.97
2022-11-05T09:11:56.959Z,101815.19
2022-11-05T09:14:18.745Z,101817.16
2022-11-05T09:16:56.136Z,101813.72
2022-11-05T09:19:26.360Z,101819.84
2022-11-05T09:21:54.923Z,101824.31
2022-11-05T09:24:22.126Z,101829.59
2022-11-05T09:26:49.481Z,101825.22
2022-11-05T09:29:19.543Z,101826.97
2022-11-05T09:31:49.359Z,101821.69
2022-11-05T09:34:22.818Z,101814.66
2022-11-05T09:36:49.965Z,101821.63
2022-11-05T09:39:17.129Z,101817.09
2022-11-05T09:41:46.242Z,101824.94
2022-11-05T09:44:22.569Z,101815.09
2022-11-05T09:47:07.766Z,101817.59
2022-11-05T09:49:59.637Z,101820.13
2022-11-05T09:52:36.039Z,101824.22
2022-11-05T09:55:09.696Z,101826.56
2022-11-05T09:57:52.506Z,101828.31
2022-11-05T10:00:19.963Z,101838.47
2022-11-05T10:03:02.948Z,101837.53
2022-11-05T10:05:34.273Z,101844.97
2022-11-05T10:08:22.970Z,101847.03
2022-11-05T10:10:56.726Z,101837.00
2022-11-05T10:13:47.397Z,101831.56
2022-11-05T10:16:29.552Z,101830.03
2022-11-05T10:19:24.746Z,101839.16
2022-11-05T10:22:10.860Z,101827.91
2022-11-05T10:24:43.167Z,101834.94
2022-11-05T10:27:38.882Z,101833.22
2022-11-05T10:30:08.877Z,101844.28
2022-11-05T10:32:39.850Z,101835.78
2022-11-05T10:35:15.514Z,101836.84
2022-11-05T10:37:43.825Z,101841.94
2022-11-05T10:40:30.537Z,101840.94
2022-11-05T10:43:14.545Z,101843.91
2022-11-05T10:46:13.970Z,101842.09
2022-11-05T10:49:19.271Z,101839.59
2022-11-05T10:52:01.250Z,101826.47
2022-11-05T10:54:35.281Z,101824.53
2022-11-05T10:57:30.761Z,101829.84
2022-11-05T11:00:20.009Z,101834.50
2022-11-05T11:03:00.042Z,101828.84
2022-11-05T11:05:36.119Z,101826.03
2022-11-05T11:08:13.832Z,101826.19
2022-11-05T11:10:49.295Z,101834.31
2022-11-05T11:13:52.379Z,101827.66
2022-11-05T11:16:23.869Z,101836.28
2022-11-05T11:19:03.906Z,101824.63
2022-11-05T11:21:34.514Z,101837.75
2022-11-05T11:24:05.160Z,101834.44
2022-11-05T11:26:40.931Z,101823.38
2022-11-05T11:29:29.152Z,101828.44
2022-11-05T11:32:03.005Z,101834.25
2022-11-05T11:34:36.179Z,101821.16
2022-11-05T11:37:19.331Z,101813.84
2022-11-05T11:39:54.941Z,101811.94
2022-11-05T11:42:39.630Z,101801.59
2022-11-05T11:45:19.926Z,101797.19
2022-11-05T11:47:58.154Z,101795.06
2022-11-05T11:50:45.831Z,101786.72
2022-11-05T11:53:24.534Z,101792.75
2022-11-05T11:55:59.764Z,101788.69
2022-11-05T11:58:39.730Z,101790.88
2022-11-05T12:01:09.814Z,101784.53
2022-11-05T12:03:59.297Z,101781.34
2022-11-05T12:06:56.318Z,101780.66
2022-11-05T12:09:53.446Z,101771.03
2022-11-05T12:12:55.985Z,101776.16
2022-11-05T12:15:29.136Z,101773.34
2022-11-05T12:18:03.186Z,101771.75
2022-11-05T12:20:48.979Z,101762.72
2022-11-05T12:24:03.035Z,101766.53
2022-11-05T12:26:47.913Z,101765.44
2022-11-05T12:29:48.549Z,101759.53
2022-11-05T12:32:31.425Z,101763.97
2022-11-05T12:35:47.395Z,101755.50
2022-11-05T12:38:42.657Z,101740.13
2022-11-05T12:41:50.638Z,101745.34
2022-11-05T12:44:45.692Z,101738.31
2022-11-05T12:47:49.825Z,101736.41
2022-11-05T12:50:52.549Z,101723.50
2022-11-05T12:53:38.365Z,101720.34
2022-11-05T12:56:24.362Z,101713.91
2022-11-05T12:59:06.635Z,101714.38
2022-11-05T13:01:43.345Z,101711.38
2022-11-05T13:05:05.523Z,101709.59
2022-11-05T13:07:40.458Z,101700.59
2022-11-05T13:10:17.508Z,101708.66
2022-11-05T13:12:49.609Z,101705.19
2022-11-05T13:16:01.622Z,101707.53
2022-11-05T13:19:08.542Z,101719.28
2022-11-05T13:21:48.125Z,101710.84
2022-11-05T13:24:33.460Z,101697.41
2022-11-05T13:27:19.499Z,101709.69
2022-11-05T13:29:58.482Z,101710.44
2022-11-05T13:32:29.618Z,101715.13
2022-11-05T13:34:58.951Z,101721.00
2022-11-05T13:37:51.666Z,101713.00
2022-11-05T13:40:25.270Z,101707.59
2022-11-05T13:43:11.055Z,101711.03
2022-11-05T13:46:16.116Z,101711.25
2022-11-05T13:49:21.237Z,101708.66
2022-11-05T13:52:06.442Z,101706.31
2022-11-05T13:54:42.552Z,101703.75
2022-11-05T13:57:42.137Z,101707.03
2022-11-05T14:00:19.699Z,101705.34
2022-11-05T14:02:55.441Z,101695.41
2022-11-05T14:05:26.093Z,101698.38
2022-11-05T14:08:02.658Z,101687.09
2022-11-05T14:10:42.827Z,101684.28
2022-11-05T14:13:28.915Z,101686.34
2022-11-05T14:16:08.347Z,101683.03
2022-11-05T14:18:40.308Z,101691.75
2022-11-05T14:21:28.047Z,101684.78
2022-11-05T14:24:21.349Z,101686.09
2022-11-05T14:27:22.763Z,101698.28
2022-11-05T14:29:51.560Z,101693.13
2022-11-05T14:32:24.551Z,101691.53
2022-11-05T14:35:17.503Z,101699.63
2022-11-05T14:37:55.008Z,101703.97
2022-11-05T14:40:57.928Z,101692.13
2022-11-05T14:43:32.408Z,101686.94
2022-11-05T14:46:08.495Z,101684.16
2022-11-05T14:49:09.666Z,101669.25
2022-11-05T14:51:46.185Z,101667.81
2022-11-05T14:54:30.618Z,101675.63
2022-11-05T14:57:00.644Z,101670.88
2022-11-05T14:59:28.697Z,101678.75
2022-11-05T15:02:03.264Z,101683.28
2022-11-05T15:04:45.991Z,101693.75
2022-11-05T15:07:22.850Z,101696.63
2022-11-05T15:10:08.920Z,101687.09
2022-11-05T15:12:51.918Z,101687.44
2022-11-05T15:15:39.072Z,101693.16
2022-11-05T15:18:32.062Z,101697.47
2022-11-05T15:21:02.329Z,101694.63
2022-11-05T15:23:46.004Z,101691.19
2022-11-05T15:26:25.921Z,101699.38
2022-11-05T15:28:56.775Z,101698.44
2022-11-05T15:31:34.538Z,101703.56
2022-11-05T15:34:24.853Z,101703.50
2022-11-05T15:36:58.046Z,101706.16
2022-11-05T15:39:31.566Z,101711.47
2022-11-05T15:41:59.484Z,101708.13
2022-11-05T15:44:49.756Z,101712.56
2022-11-05T15:47:27.169Z,101712.53
2022-11-05T15:49:59.723Z,101712.56
2022-11-05T15:52:50.718Z,101721.44
2022-11-05T15:55:25.952Z,101717.88
2022-11-05T15:57:53.133Z,101722.31
2022-11-05T16:00:29.333Z,101724.94
2022-11-05T16:03:16.277Z,101723.19
2022-11-05T16:05:46.933Z,101720.56
2022-11-05T16:08:28.819Z,101723.16
2022-11-05T16:10:59.209Z,101727.56
2022-11-05T16:13:42.747Z,101726.66
2022-11-05T16:16:40.046Z,101724.03
2022-11-05T16:19:40.110Z,101734.56
2022-11-05T16:22:12.746Z,101730.13
2022-11-05T16:24:42.948Z,101742.47
2022-11-05T16:27:27.208Z,101745.91
2022-11-05T16:29:59.776Z,101734.50
2022-11-05T16:32:33.308Z,101747.69
2022-11-05T16:35:13.153Z,101741.56
2022-11-05T16:37:51.985Z,101742.44
2022-11-05T16:40:31.473Z,101744.22
2022-11-05T16:43:33.429Z,101744.22
2022-11-05T16:46:03.409Z,101740.72
2022-11-05T16:48:38.554Z,101742.47
2022-11-05T16:51:15.428Z,101748.59
2022-11-05T16:53:54.626Z,101756.47
2022-11-05T16:56:35.567Z,101756.44
2022-11-05T16:59:18.803Z,101760.81
2022-11-05T17:01:56.117Z,101748.56
2022-11-05T17:04:32.093Z,101752.13
2022-11-05T17:07:12.404Z,101760.03
2022-11-05T17:09:43.069Z,101762.63
2022-11-05T17:12:26.787Z,101762.66
2022-11-05T17:15:09.753Z,101755.59
2022-11-05T17:17:41.984Z,101763.53
2022-11-05T17:20:25.316Z,101764.41
2022-11-05T17:22:53.958Z,101767.97
2022-11-05T17:25:28.759Z,101766.19
2022-11-05T17:28:05.709Z,101765.31
2022-11-05T17:30:36.686Z,101762.69
2022-11-05T17:33:18.634Z,101767.94
2022-11-05T17:35:49.361Z,101773.22
2022-11-05T17:38:26.347Z,101767.97
2022-11-05T17:40:56.258Z,101767.03
2022-11-05T17:43:26.289Z,101761.78
2022-11-05T17:46:01.519Z,101774.94
2022-11-05T17:48:32.989Z,101774.06
2022-11-05T17:51:01.579Z,101764.41
2022-11-05T17:53:34.590Z,101762.59
2022-11-05T17:56:34.788Z,101767.00
2022-11-05T17:59:08.909Z,101775.84
2022-11-05T18:01:48.236Z,101778.47
2022-11-05T18:04:21.879Z,101781.97
2022-11-05T18:07:03.729Z,101790.78
2022-11-05T18:09:42.175Z,101795.13
2022-11-05T18:12:20.184Z,101795.13
2022-11-05T18:15:17.425Z,101789.84
2022-11-05T18:17:51.196Z,101788.09
2022-11-05T18:20:36.054Z,101794.25
2022-11-05T18:23:18.314Z,101796.84
2022-11-05T18:25:53.654Z,101801.22
2022-11-05T18:28:37.399Z,101799.47
2022-11-05T18:31:23.396Z,101801.16
2022-11-05T18:33:57.325Z,101805.50
2022-11-05T18:36:37.766Z,101810.75
2022-11-05T18:39:31.752Z,101806.34
2022-11-05T18:42:02.659Z,101811.63
2022-11-05T18:44:39.209Z,101802.84
2022-11-05T18:47:24.550Z,101800.22
2022-11-05T18:50:15.081Z,101799.28
2022-11-05T18:52:56.086Z,101808.06
2022-11-05T18:55:46.510Z,101800.09
2022-11-05T18:58:18.416Z,101802.72
2022-11-05T19:01:06.481Z,101811.50
2022-11-05T19:03:53.396Z,101807.94
2022-11-05T19:10:02.990Z,101815.81
2022-11-05T19:12:49.045Z,101823.69
2022-11-05T19:18:53.735Z,101821.03
2022-11-05T19:21:42.846Z,101819.25
2022-11-05T19:24:38.345Z,101809.53
2022-11-05T19:27:14.240Z,101802.50
2022-11-05T19:30:16.356Z,101809.53
2022-11-05T19:32:53.273Z,101816.53
2022-11-05T19:35:28.961Z,101830.38
2022-11-05T19:38:14.872Z,101826.88
2022-11-05T19:40:54.747Z,101825.09
2022-11-05T19:44:03.546Z,101825.09
2022-11-05T19:46:58.556Z,101832.03
2022-11-05T19:49:34.877Z,101829.47
2022-11-05T19:52:36.398Z,101834.66
2022-11-05T19:55:20.960Z,101830.28
2022-11-05T19:58:18.389Z,101835.50
2022-11-05T20:01:02.348Z,101835.41
2022-11-05T20:03:54.494Z,101842.34
2022-11-05T20:06:39.215Z,101840.56
2022-11-05T20:09:28.724Z,101834.34
2022-11-05T20:12:19.913Z,101838.69
2022-11-05T20:15:10.956Z,101834.28
2022-11-05T20:18:22.785Z,101842.09
2022-11-05T20:21:21.875Z,101849.91
2022-11-05T20:24:03.451Z,101848.03
2022-11-05T20:26:40.661Z,101850.66
2022-11-05T20:32:29.089Z,101847.78
2022-11-05T20:35:28.140Z,101850.34
2022-11-05T20:38:41.067Z,101854.75
2022-11-05T20:41:27.966Z,101854.66
2022-11-05T20:44:21.506Z,101850.25
2022-11-05T20:47:22.831Z,101865.00
2022-11-05T20:49:56.293Z,101866.63
2022-11-05T20:52:53.873Z,101868.34
2022-11-05T20:55:42.351Z,101865.56
2022-11-05T20:58:24.046Z,101851.66
2022-11-05T21:01:41.398Z,101849.78
2022-11-05T21:04:27.112Z,101852.38
2022-11-05T21:07:26.533Z,101851.50
2022-11-05T21:10:31.591Z,101848.75
2022-11-05T21:13:18.926Z,101850.53
2022-11-05T21:16:33.408Z,101847.03
2022-11-05T21:19:16.370Z,101853.16
2022-11-05T21:22:04.180Z,101846.09
2022-11-05T21:25:26.217Z,101835.44
2022-11-05T21:28:49.366Z,101831.91
2022-11-05T21:31:36.219Z,101827.41
2022-11-05T21:34:25.623Z,101831.88
2022-11-05T21:37:02.053Z,101824.72
2022-11-05T21:39:37.604Z,101820.38
2022-11-05T21:42:17.272Z,101819.44
2022-11-05T21:44:49.439Z,101828.97
2022-11-05T21:47:29.180Z,101826.31
2022-11-05T21:49:58.855Z,101824.44
2022-11-05T21:52:50.289Z,101827.13
2022-11-05T21:55:49.937Z,101814.75
2022-11-05T21:58:51.105Z,101821.72
2022-11-05T22:01:20.373Z,101822.47
2022-11-05T22:03:53.193Z,101826.88
2022-11-05T22:06:22.906Z,101832.97
2022-11-05T22:08:51.966Z,101836.56
2022-11-05T22:11:24.073Z,101830.38
2022-11-05T22:13:55.150Z,101826.94
2022-11-05T22:16:29.191Z,101815.50
2022-11-05T22:19:04.932Z,101818.13
2022-11-05T22:21:38.092Z,101823.34
2022-11-05T22:24:10.535Z,101819.78
2022-11-05T22:26:43.944Z,101818.03
2022-11-05T22:29:15.661Z,101820.63
2022-11-05T22:31:49.021Z,101816.28
2022-11-05T22:34:19.082Z,101814.38
2022-11-05T22:36:56.506Z,101812.47
2022-11-05T22:39:27.598Z,101805.47
2022-11-05T22:42:08.556Z,101809.84
2022-11-05T22:44:40.077Z,101810.63
2022-11-05T22:47:08.491Z,101804.53
2022-11-05T22:49:41.225Z,101804.31
2022-11-05T22:52:11.662Z,101799.75
2022-11-05T22:54:43.842Z,101798.25
2022-11-05T22:57:14.057Z,101807.72
2022-11-05T22:59:50.146Z,101802.28
2022-11-05T23:02:29.369Z,101806.63
2022-11-05T23:05:10.734Z,101812.84
2022-11-05T23:07:59.083Z,101802.22
2022-11-05T23:10:45.936Z,101805.72
2022-11-05T23:13:17.881Z,101806.56
2022-11-05T23:16:06.106Z,101800.41
2022-11-05T23:19:17.064Z,101785.34
2022-11-05T23:22:03.988Z,101791.50
2022-11-05T23:24:33.606Z,101795.94
2022-11-05T23:27:01.043Z,101795.19
2022-11-05T23:29:28.524Z,101790.72
2022-11-05T23:32:18.000Z,101791.50
2022-11-05T23:34:51.987Z,101790.63
2022-11-05T23:40:26.731Z,101787.88
2022-11-05T23:43:13.052Z,101779.19
2022-11-05T23:46:03.418Z,101788.69
2022-11-05T23:48:39.683Z,101781.75
2022-11-05T23:51:13.711Z,101775.78
2022-11-05T23:53:46.381Z,101770.56
2022-11-05T23:56:21.681Z,101768.66
2022-11-05T23:58:49.342Z,101769.66
